sensor_id;sensor_type;location;lat;lon;timestamp;temperature;humidity
55777;DHT22;54079;44.540;18.784;2023-02-08T17:25:56;-1.60;78.80
55777;DHT22;54079;44.540;18.784;2023-02-08T17:28:22;-1.60;78.60
55777;DHT22;54079;44.540;18.784;2023-02-08T17:30:48;-1.60;79.00
55777;DHT22;54079;44.540;18.784;2023-02-08T17:33:15;-1.60;78.70
55777;DHT22;54079;44.540;18.784;2023-02-08T17:35:45;-1.50;79.10
55777;DHT22;54079;44.540;18.784;2023-02-08T17:38:12;-1.50;78.60
55777;DHT22;54079;44.540;18.784;2023-02-08T17:40:40;-1.60;78.30
55777;DHT22;54079;44.540;18.784;2023-02-08T17:43:06;-1.60;79.70
55777;DHT22;54079;44.540;18.784;2023-02-08T17:45:36;-1.60;79.10
55777;DHT22;54079;44.540;18.784;2023-02-08T17:48:04;-1.70;79.00
55777;DHT22;54079;44.540;18.784;2023-02-08T17:50:30;-1.80;79.00
55777;DHT22;54079;44.540;18.784;2023-02-08T17:52:56;-1.90;79.10
55777;DHT22;54079;44.540;18.784;2023-02-08T17:55:22;-2.00;79.00
55777;DHT22;54079;44.540;18.784;2023-02-08T17:57:49;-2.10;79.10
55777;DHT22;54079;44.540;18.784;2023-02-08T18:00:19;-2.20;79.90
55777;DHT22;54079;44.540;18.784;2023-02-08T18:02:50;-2.10;79.40
55777;DHT22;54079;44.540;18.784;2023-02-08T18:05:18;-2.10;80.60
55777;DHT22;54079;44.540;18.784;2023-02-08T18:07:44;-2.10;79.40
55777;DHT22;54079;44.540;18.784;2023-02-08T18:10:11;-2.10;79.40
55777;DHT22;54079;44.540;18.784;2023-02-08T18:12:38;-2.10;80.30
55777;DHT22;54079;44.540;18.784;2023-02-08T18:15:06;-2.10;80.20
55777;DHT22;54079;44.540;18.784;2023-02-08T18:17:32;-2.10;79.30
55777;DHT22;54079;44.540;18.784;2023-02-08T18:19:59;-2.10;79.00
55777;DHT22;54079;44.540;18.784;2023-02-08T18:22:25;-2.10;79.30
55777;DHT22;54079;44.540;18.784;2023-02-08T18:24:51;-2.20;80.20
55777;DHT22;54079;44.540;18.784;2023-02-08T18:27:18;-2.20;79.30
55777;DHT22;54079;44.540;18.784;2023-02-08T18:29:44;-2.20;79.90
55777;DHT22;54079;44.540;18.784;2023-02-08T18:32:10;-2.20;79.20
55777;DHT22;54079;44.540;18.784;2023-02-08T18:34:36;-2.30;78.80
55777;DHT22;54079;44.540;18.784;2023-02-08T18:37:04;-2.40;79.40
55777;DHT22;54079;44.540;18.784;2023-02-08T18:39:30;-2.30;79.80
55777;DHT22;54079;44.540;18.784;2023-02-08T18:41:56;-2.40;79.90
55777;DHT22;54079;44.540;18.784;2023-02-08T18:44:22;-2.30;80.70
55777;DHT22;54079;44.540;18.784;2023-02-08T18:46:48;-2.30;80.30
55777;DHT22;54079;44.540;18.784;2023-02-08T18:49:14;-2.30;79.90
55777;DHT22;54079;44.540;18.784;2023-02-08T18:51:45;-2.20;80.30
55777;DHT22;54079;44.540;18.784;2023-02-08T18:54:16;-2.10;79.80
55777;DHT22;54079;44.540;18.784;2023-02-08T18:56:43;-2.10;79.50
55777;DHT22;54079;44.540;18.784;2023-02-08T18:59:10;-2.10;79.90
55777;DHT22;54079;44.540;18.784;2023-02-08T19:01:37;-2.00;79.50
55777;DHT22;54079;44.540;18.784;2023-02-08T19:04:03;-1.90;79.50
55777;DHT22;54079;44.540;18.784;2023-02-08T19:06:32;-1.80;79.10
55777;DHT22;54079;44.540;18.784;2023-02-08T19:09:02;-1.80;79.10
55777;DHT22;54079;44.540;18.784;2023-02-08T19:11:33;-1.80;79.20
55777;DHT22;54079;44.540;18.784;2023-02-08T19:14:01;-1.90;79.50
55777;DHT22;54079;44.540;18.784;2023-02-08T19:16:32;-1.80;79.40
55777;DHT22;54079;44.540;18.784;2023-02-08T19:18:59;-1.70;78.60
55777;DHT22;54079;44.540;18.784;2023-02-08T19:21:26;-1.80;79.00
55777;DHT22;54079;44.540;18.784;2023-02-08T19:23:53;-1.70;78.90
55777;DHT22;54079;44.540;18.784;2023-02-08T19:26:32;-1.70;79.20
55777;DHT22;54079;44.540;18.784;2023-02-08T19:29:00;-1.70;79.20
55777;DHT22;54079;44.540;18.784;2023-02-08T19:31:28;-1.70;79.80
55777;DHT22;54079;44.540;18.784;2023-02-08T19:33:57;-1.70;80.30
55777;DHT22;54079;44.540;18.784;2023-02-08T19:36:26;-1.70;79.80
55777;DHT22;54079;44.540;18.784;2023-02-08T19:38:53;-1.70;80.10
55777;DHT22;54079;44.540;18.784;2023-02-08T19:41:22;-1.80;79.80
55777;DHT22;54079;44.540;18.784;2023-02-08T19:43:48;-1.80;80.40
55777;DHT22;54079;44.540;18.784;2023-02-08T19:46:16;-1.70;80.40
55777;DHT22;54079;44.540;18.784;2023-02-08T19:48:44;-1.70;79.80
55777;DHT22;54079;44.540;18.784;2023-02-08T19:51:11;-1.70;79.70
55777;DHT22;54079;44.540;18.784;2023-02-08T19:53:37;-1.70;79.30
55777;DHT22;54079;44.540;18.784;2023-02-08T19:56:05;-1.70;78.90
55777;DHT22;54079;44.540;18.784;2023-02-08T19:58:32;-1.80;79.90
55777;DHT22;54079;44.540;18.784;2023-02-08T20:00:58;-1.80;79.90
55777;DHT22;54079;44.540;18.784;2023-02-08T20:03:24;-1.70;80.10
55777;DHT22;54079;44.540;18.784;2023-02-08T20:05:51;-1.70;79.80
55777;DHT22;54079;44.540;18.784;2023-02-08T20:08:22;-1.60;79.90
55777;DHT22;54079;44.540;18.784;2023-02-08T20:10:53;-1.70;79.60
55777;DHT22;54079;44.540;18.784;2023-02-08T20:13:19;-1.70;79.50
55777;DHT22;54079;44.540;18.784;2023-02-08T20:15:46;-1.60;80.00
55777;DHT22;54079;44.540;18.784;2023-02-08T20:18:13;-1.70;79.50
55777;DHT22;54079;44.540;18.784;2023-02-08T20:20:41;-1.70;79.80
55777;DHT22;54079;44.540;18.784;2023-02-08T20:23:08;-1.70;79.60
55777;DHT22;54079;44.540;18.784;2023-02-08T20:25:35;-1.80;79.80
55777;DHT22;54079;44.540;18.784;2023-02-08T20:28:01;-1.80;79.80
55777;DHT22;54079;44.540;18.784;2023-02-08T20:30:27;-1.70;79.80
55777;DHT22;54079;44.540;18.784;2023-02-08T20:32:53;-1.60;79.50
55777;DHT22;54079;44.540;18.784;2023-02-08T20:35:19;-1.50;79.40
55777;DHT22;54079;44.540;18.784;2023-02-08T20:37:45;-1.60;79.00
55777;DHT22;54079;44.540;18.784;2023-02-08T20:40:12;-1.60;79.10
55777;DHT22;54079;44.540;18.784;2023-02-08T20:42:39;-1.60;79.40
55777;DHT22;54079;44.540;18.784;2023-02-08T20:45:05;-1.60;79.10
55777;DHT22;54079;44.540;18.784;2023-02-08T20:47:36;-1.50;79.10
55777;DHT22;54079;44.540;18.784;2023-02-08T20:50:03;-1.60;79.00
55777;DHT22;54079;44.540;18.784;2023-02-08T20:52:30;-1.60;79.40
55777;DHT22;54079;44.540;18.784;2023-02-08T20:54:56;-1.70;79.20
55777;DHT22;54079;44.540;18.784;2023-02-08T20:57:22;-1.60;79.00
55777;DHT22;54079;44.540;18.784;2023-02-08T20:59:50;-1.60;79.10
55777;DHT22;54079;44.540;18.784;2023-02-08T21:02:20;-1.60;79.20
55777;DHT22;54079;44.540;18.784;2023-02-08T21:04:47;-1.70;79.30
55777;DHT22;54079;44.540;18.784;2023-02-08T21:07:16;-1.70;79.40
55777;DHT22;54079;44.540;18.784;2023-02-08T21:09:43;-1.70;79.30
55777;DHT22;54079;44.540;18.784;2023-02-08T21:12:09;-1.60;79.60
55777;DHT22;54079;44.540;18.784;2023-02-08T21:14:35;-1.60;79.20
55777;DHT22;54079;44.540;18.784;2023-02-08T21:17:01;-1.70;79.30
55777;DHT22;54079;44.540;18.784;2023-02-08T21:19:28;-1.70;79.70
55777;DHT22;54079;44.540;18.784;2023-02-08T21:21:59;-1.70;79.50
55777;DHT22;54079;44.540;18.784;2023-02-08T21:24:26;-1.70;79.50
55777;DHT22;54079;44.540;18.784;2023-02-08T21:26:54;-1.80;79.50
55777;DHT22;54079;44.540;18.784;2023-02-08T21:29:21;-1.80;79.60
55777;DHT22;54079;44.540;18.784;2023-02-08T21:31:47;-1.80;79.80
55777;DHT22;54079;44.540;18.784;2023-02-08T21:34:19;-1.70;79.90
55777;DHT22;54079;44.540;18.784;2023-02-08T21:36:45;-1.70;79.50
55777;DHT22;54079;44.540;18.784;2023-02-08T21:39:11;-1.70;79.50
55777;DHT22;54079;44.540;18.784;2023-02-08T21:41:37;-1.60;79.50
55777;DHT22;54079;44.540;18.784;2023-02-08T21:44:04;-1.70;79.50
55777;DHT22;54079;44.540;18.784;2023-02-08T21:46:32;-1.70;79.60
55777;DHT22;54079;44.540;18.784;2023-02-08T21:48:58;-1.70;80.00
55777;DHT22;54079;44.540;18.784;2023-02-08T21:51:43;-1.60;80.10
55777;DHT22;54079;44.540;18.784;2023-02-08T21:54:31;-1.60;79.50
55777;DHT22;54079;44.540;18.784;2023-02-08T21:57:09;-1.70;79.70
55777;DHT22;54079;44.540;18.784;2023-02-08T21:59:36;-1.70;80.30
55777;DHT22;54079;44.540;18.784;2023-02-08T22:02:04;-1.70;80.10
55777;DHT22;54079;44.540;18.784;2023-02-08T22:04:34;-1.70;80.50
55777;DHT22;54079;44.540;18.784;2023-02-08T22:07:01;-1.70;80.20
55777;DHT22;54079;44.540;18.784;2023-02-08T22:09:29;-1.70;79.90
55777;DHT22;54079;44.540;18.784;2023-02-08T22:11:55;-1.60;79.90
55777;DHT22;54079;44.540;18.784;2023-02-08T22:14:22;-1.60;79.90
55777;DHT22;54079;44.540;18.784;2023-02-08T22:16:48;-1.70;79.50
55777;DHT22;54079;44.540;18.784;2023-02-08T22:19:14;-1.70;79.80
55777;DHT22;54079;44.540;18.784;2023-02-08T22:21:40;-1.70;79.70
55777;DHT22;54079;44.540;18.784;2023-02-08T22:24:06;-1.70;80.00
55777;DHT22;54079;44.540;18.784;2023-02-08T22:26:32;-1.60;79.60
55777;DHT22;54079;44.540;18.784;2023-02-08T22:28:58;-1.60;79.50
55777;DHT22;54079;44.540;18.784;2023-02-08T22:31:24;-1.70;79.90
55777;DHT22;54079;44.540;18.784;2023-02-08T22:33:53;-1.70;79.30
55777;DHT22;54079;44.540;18.784;2023-02-08T22:36:19;-1.80;79.90
55777;DHT22;54079;44.540;18.784;2023-02-08T22:38:45;-1.70;80.70
55777;DHT22;54079;44.540;18.784;2023-02-08T22:41:13;-1.80;79.80
55777;DHT22;54079;44.540;18.784;2023-02-08T22:43:39;-1.90;79.30
55777;DHT22;54079;44.540;18.784;2023-02-08T22:46:05;-2.00;79.80
55777;DHT22;54079;44.540;18.784;2023-02-08T22:48:32;-2.10;79.90
55777;DHT22;54079;44.540;18.784;2023-02-08T22:50:59;-2.00;79.90
55777;DHT22;54079;44.540;18.784;2023-02-08T22:53:29;-2.10;80.20
55777;DHT22;54079;44.540;18.784;2023-02-08T22:55:55;-2.00;79.80
55777;DHT22;54079;44.540;18.784;2023-02-08T22:58:22;-2.00;78.80
55777;DHT22;54079;44.540;18.784;2023-02-08T23:00:48;-2.10;79.00
55777;DHT22;54079;44.540;18.784;2023-02-08T23:03:15;-2.30;79.40
55777;DHT22;54079;44.540;18.784;2023-02-08T23:05:46;-2.50;80.00
55777;DHT22;54079;44.540;18.784;2023-02-08T23:08:14;-2.70;81.00
55777;DHT22;54079;44.540;18.784;2023-02-08T23:10:40;-2.80;82.40
55777;DHT22;54079;44.540;18.784;2023-02-08T23:13:06;-2.80;82.90
55777;DHT22;54079;44.540;18.784;2023-02-08T23:15:35;-2.70;82.50
55777;DHT22;54079;44.540;18.784;2023-02-08T23:18:01;-2.70;81.90
55777;DHT22;54079;44.540;18.784;2023-02-08T23:20:28;-2.60;82.20
55777;DHT22;54079;44.540;18.784;2023-02-08T23:22:54;-2.70;82.80
55777;DHT22;54079;44.540;18.784;2023-02-08T23:25:20;-2.70;82.40
55777;DHT22;54079;44.540;18.784;2023-02-08T23:27:46;-2.70;82.30
55777;DHT22;54079;44.540;18.784;2023-02-08T23:30:13;-2.60;82.00
55777;DHT22;54079;44.540;18.784;2023-02-08T23:32:40;-2.60;82.60
55777;DHT22;54079;44.540;18.784;2023-02-08T23:35:08;-2.60;82.20
55777;DHT22;54079;44.540;18.784;2023-02-08T23:37:34;-2.70;82.60
55777;DHT22;54079;44.540;18.784;2023-02-08T23:40:00;-2.50;82.40
55777;DHT22;54079;44.540;18.784;2023-02-08T23:42:26;-2.50;81.60
55777;DHT22;54079;44.540;18.784;2023-02-08T23:44:57;-2.50;81.50
55777;DHT22;54079;44.540;18.784;2023-02-08T23:47:23;-2.30;81.30
55777;DHT22;54079;44.540;18.784;2023-02-08T23:49:50;-2.20;81.00
55777;DHT22;54079;44.540;18.784;2023-02-08T23:52:16;-2.00;79.90
55777;DHT22;54079;44.540;18.784;2023-02-08T23:54:42;-2.00;79.60
55777;DHT22;54079;44.540;18.784;2023-02-08T23:57:08;-2.10;80.00
55777;DHT22;54079;44.540;18.784;2023-02-08T23:59:34;-2.00;80.20
